createdAt,value
2022-08-19T00:00:56.240Z,9.50
2022-08-19T00:05:58.953Z,10.10
2022-08-19T00:11:01.695Z,9.60
2022-08-19T00:16:06.909Z,9.90
2022-08-19T00:21:10.566Z,9.10
2022-08-19T00:26:13.448Z,9.70
2022-08-19T00:31:16.603Z,10.10
2022-08-19T00:36:19.627Z,10.70
2022-08-19T00:41:25.094Z,9.60
2022-08-19T00:46:29.445Z,10.60
2022-08-19T00:51:33.904Z,11.20
2022-08-19T00:56:37.857Z,9.60
2022-08-19T01:01:43.522Z,10.60
2022-08-19T01:06:46.292Z,9.70
2022-08-19T01:11:49.601Z,10.10
2022-08-19T01:16:55.562Z,10.20
2022-08-19T01:22:14.203Z,10.90
2022-08-19T01:27:18.737Z,10.10
2022-08-19T01:32:33.984Z,11.60
2022-08-19T01:37:48.102Z,11.70
2022-08-19T01:42:53.861Z,11.70
2022-08-19T01:48:01.482Z,11.10
2022-08-19T01:53:09.432Z,10.90
2022-08-19T01:58:25.826Z,11.40
2022-08-19T02:03:30.076Z,11.60
2022-08-19T02:08:35.792Z,11.50
2022-08-19T02:13:38.521Z,11.90
2022-08-19T02:18:41.234Z,11.00
2022-08-19T02:23:44.289Z,11.80
2022-08-19T02:28:47.014Z,11.80
2022-08-19T02:33:50.035Z,11.40
2022-08-19T02:38:54.718Z,12.70
2022-08-19T02:44:14.274Z,12.20
2022-08-19T02:49:22.172Z,12.00
2022-08-19T02:54:24.977Z,11.40
2022-08-19T02:59:31.475Z,11.60
2022-08-19T03:04:34.269Z,12.10
2022-08-19T03:09:40.674Z,11.70
2022-08-19T03:14:43.801Z,11.80
2022-08-19T03:19:46.503Z,11.40
2022-08-19T03:24:49.262Z,11.90
2022-08-19T03:29:52.576Z,12.20
2022-08-19T03:34:55.379Z,11.50
2022-08-19T03:39:58.098Z,12.20
2022-08-19T03:45:00.984Z,12.80
2022-08-19T03:50:04.056Z,12.40
2022-08-19T03:55:07.787Z,12.30
2022-08-19T04:00:13.536Z,12.00
2022-08-19T04:05:16.825Z,12.60
2022-08-19T04:10:19.660Z,11.40
2022-08-19T04:15:22.357Z,11.90
2022-08-19T04:20:25.077Z,12.40
2022-08-19T04:25:27.802Z,12.10
2022-08-19T04:30:30.488Z,11.30
2022-08-19T04:35:46.210Z,12.40
2022-08-19T04:41:09.112Z,10.90
2022-08-19T04:46:18.151Z,11.70
2022-08-19T04:51:37.913Z,11.80
2022-08-19T04:56:41.809Z,11.00
2022-08-19T05:01:44.656Z,9.80
2022-08-19T05:06:49.586Z,9.80
2022-08-19T05:11:54.670Z,11.20
2022-08-19T05:17:25.622Z,10.00
2022-08-19T05:22:38.411Z,9.70
2022-08-19T05:27:42.713Z,11.80
2022-08-19T05:32:45.840Z,11.10
2022-08-19T05:37:48.553Z,11.10
2022-08-19T05:42:57.700Z,9.80
2022-08-19T05:48:00.573Z,9.70
2022-08-19T05:53:03.781Z,10.00
2022-08-19T05:58:08.732Z,8.70
2022-08-19T06:03:13.439Z,9.70
2022-08-19T06:08:19.492Z,8.70
2022-08-19T06:13:24.331Z,8.30
2022-08-19T06:18:27.420Z,8.60
2022-08-19T06:23:30.527Z,8.10
2022-08-19T06:28:34.684Z,8.10
2022-08-19T06:33:38.460Z,7.90
2022-08-19T06:38:41.681Z,7.50
2022-08-19T06:43:45.034Z,7.10
2022-08-19T06:48:49.749Z,6.50
2022-08-19T06:53:55.680Z,6.20
2022-08-19T06:58:59.448Z,6.80
2022-08-19T07:04:03.492Z,6.40
2022-08-19T07:09:10.492Z,6.20
2022-08-19T07:14:19.126Z,5.70
2022-08-19T07:19:24.790Z,5.60
2022-08-19T07:24:28.515Z,4.70
2022-08-19T07:29:38.345Z,5.50
2022-08-19T07:34:41.386Z,5.70
2022-08-19T07:39:45.884Z,5.20
2022-08-19T07:44:50.421Z,5.20
2022-08-19T07:49:53.617Z,5.40
2022-08-19T07:54:56.422Z,5.60
2022-08-19T08:00:00.273Z,5.30
2022-08-19T08:05:22.435Z,5.60
2022-08-19T08:10:25.295Z,4.60
2022-08-19T08:15:28.334Z,4.80
2022-08-19T08:20:32.558Z,5.00
2022-08-19T08:25:37.385Z,4.80
2022-08-19T08:30:45.075Z,5.10
2022-08-19T08:35:48.421Z,5.20
2022-08-19T08:41:20.615Z,5.10
2022-08-19T08:46:31.488Z,5.30
2022-08-19T08:56:54.302Z,4.50
2022-08-19T09:01:57.131Z,4.50
2022-08-19T09:07:36.051Z,4.90
2022-08-19T09:12:59.936Z,4.50
2022-08-19T09:18:07.191Z,4.60
2022-08-19T09:23:11.897Z,4.60
2022-08-19T09:28:22.492Z,4.40
2022-08-19T09:33:30.614Z,4.30
2022-08-19T09:38:33.645Z,4.50
2022-08-19T09:43:44.176Z,4.40
2022-08-19T09:48:53.149Z,4.40
2022-08-19T09:54:01.281Z,4.30
2022-08-19T09:59:07.868Z,4.10
2022-08-19T10:04:20.174Z,3.90
2022-08-19T10:09:26.254Z,3.70
2022-08-19T10:14:38.121Z,4.10
2022-08-19T10:19:42.076Z,3.90
2022-08-19T10:24:58.650Z,3.60
2022-08-19T10:30:02.697Z,4.20
2022-08-19T10:35:09.492Z,4.20
2022-08-19T10:40:12.956Z,3.80
2022-08-19T10:50:37.431Z,4.00
2022-08-19T10:55:59.274Z,4.10
2022-08-19T11:01:02.340Z,4.00
2022-08-19T11:06:08.653Z,3.90
2022-08-19T11:11:11.769Z,4.00
2022-08-19T11:16:23.996Z,3.90
2022-08-19T11:21:33.340Z,4.10
2022-08-19T11:26:37.094Z,4.20
2022-08-19T11:31:42.861Z,3.90
2022-08-19T11:36:49.182Z,4.10
2022-08-19T11:41:52.483Z,3.70
2022-08-19T11:46:55.823Z,3.70
2022-08-19T11:51:59.494Z,3.50
2022-08-19T11:57:04.761Z,4.00
2022-08-19T12:02:07.487Z,4.00
2022-08-19T12:07:10.258Z,4.10
2022-08-19T12:12:13.210Z,4.30
2022-08-19T12:17:16.362Z,4.10
2022-08-19T12:22:19.588Z,4.50
2022-08-19T12:27:39.933Z,3.90
2022-08-19T12:32:44.245Z,4.20
2022-08-19T12:37:56.917Z,4.40
2022-08-19T12:43:00.508Z,4.30
2022-08-19T12:48:33.584Z,4.30
2022-08-19T12:53:27.087Z,4.00
2022-08-19T12:58:30.834Z,4.20
2022-08-19T13:03:36.432Z,3.90
2022-08-19T13:08:42.907Z,4.30
2022-08-19T13:13:51.507Z,3.90
2022-08-19T13:18:56.939Z,4.20
2022-08-19T13:23:59.980Z,4.30
2022-08-19T13:29:38.062Z,3.90
2022-08-19T13:34:47.749Z,4.20
2022-08-19T13:39:50.615Z,3.80
2022-08-19T13:44:55.765Z,3.90
2022-08-19T13:49:58.468Z,3.90
2022-08-19T13:55:01.222Z,3.80
2022-08-19T14:00:05.496Z,3.70
2022-08-19T14:05:12.601Z,4.10
2022-08-19T14:10:16.127Z,3.90
2022-08-19T14:15:18.895Z,4.20
2022-08-19T14:20:22.470Z,3.80
2022-08-19T14:25:31.046Z,4.00
2022-08-19T14:30:35.906Z,3.90
2022-08-19T14:35:39.096Z,3.70
2022-08-19T14:40:43.146Z,3.90
2022-08-19T14:45:46.305Z,3.80
2022-08-19T14:50:49.623Z,4.10
2022-08-19T14:55:53.108Z,3.80
2022-08-19T15:00:55.994Z,4.10
2022-08-19T15:06:00.180Z,3.80
2022-08-19T15:11:03.875Z,3.80
2022-08-19T15:16:06.934Z,3.70
2022-08-19T15:21:27.151Z,4.00
2022-08-19T15:26:33.479Z,3.80
2022-08-19T15:31:38.264Z,3.80
2022-08-19T15:36:41.789Z,4.10
2022-08-19T15:41:45.286Z,3.90
2022-08-19T15:46:49.450Z,4.20
2022-08-19T15:51:54.382Z,4.90
2022-08-19T15:57:15.720Z,4.50
2022-08-19T16:02:40.386Z,4.40
2022-08-19T16:07:43.260Z,4.20
2022-08-19T16:12:46.105Z,4.40
2022-08-19T16:17:55.493Z,4.20
2022-08-19T16:23:00.546Z,4.70
2022-08-19T16:28:06.630Z,4.40
2022-08-19T16:33:11.082Z,4.30
2022-08-19T16:38:13.783Z,4.90
2022-08-19T16:43:16.473Z,4.30
2022-08-19T16:48:20.594Z,5.10
2022-08-19T16:53:29.166Z,4.90
2022-08-19T16:58:34.449Z,4.50
2022-08-19T17:03:39.993Z,4.40
2022-08-19T17:08:48.504Z,4.60
2022-08-19T17:13:52.276Z,4.30
2022-08-19T17:18:57.541Z,5.00
2022-08-19T17:24:02.284Z,5.50
2022-08-19T17:29:06.054Z,4.40
2022-08-19T17:34:09.379Z,4.50
2022-08-19T17:39:12.173Z,4.80
2022-08-19T17:44:14.914Z,4.50
2022-08-19T17:49:17.991Z,4.70
2022-08-19T17:54:20.800Z,4.60
2022-08-19T17:59:23.610Z,4.70
2022-08-19T18:09:42.283Z,5.20
2022-08-19T18:14:46.565Z,5.00
2022-08-19T18:19:49.492Z,4.70
2022-08-19T18:24:52.448Z,5.00
2022-08-19T18:29:59.860Z,4.90
2022-08-19T18:35:06.596Z,5.10
2022-08-19T18:40:31.698Z,5.90
2022-08-19T18:46:07.223Z,4.70
2022-08-19T18:51:11.383Z,4.50
2022-08-19T18:56:18.104Z,5.40
2022-08-19T19:01:50.693Z,5.80
2022-08-19T19:06:53.889Z,5.80
2022-08-19T19:12:00.530Z,6.30
2022-08-19T19:17:06.973Z,5.60
2022-08-19T19:22:13.233Z,5.20
2022-08-19T19:27:20.457Z,4.60
2022-08-19T19:32:28.529Z,5.00
2022-08-19T19:37:31.683Z,4.50
2022-08-19T19:42:35.201Z,4.80
2022-08-19T19:47:38.120Z,4.60
2022-08-19T19:52:41.190Z,4.80
2022-08-19T19:57:46.585Z,4.30
2022-08-19T20:02:50.917Z,4.40
2022-08-19T20:08:14.263Z,4.80
2022-08-19T20:13:17.165Z,4.80
2022-08-19T20:18:19.925Z,4.50
2022-08-19T20:23:23.637Z,4.40
2022-08-19T20:28:28.458Z,4.70
2022-08-19T20:33:31.500Z,4.30
2022-08-19T20:38:35.171Z,4.40
2022-08-19T20:43:38.890Z,4.20
2022-08-19T20:48:42.971Z,4.20
2022-08-19T20:53:45.793Z,4.10
2022-08-19T20:58:53.518Z,3.90
2022-08-19T21:03:58.336Z,4.10
2022-08-19T21:09:01.318Z,3.90
2022-08-19T21:14:04.096Z,4.10
2022-08-19T21:19:06.995Z,3.90
2022-08-19T21:24:09.935Z,4.00
2022-08-19T21:29:12.664Z,4.10
2022-08-19T21:34:15.621Z,4.00
2022-08-19T21:39:18.460Z,3.80
2022-08-19T21:44:21.298Z,4.30
2022-08-19T21:49:24.101Z,3.90
2022-08-19T21:54:26.822Z,4.30
2022-08-19T21:59:43.537Z,4.30
2022-08-19T22:04:47.167Z,4.30
2022-08-19T22:09:51.726Z,4.30
2022-08-19T22:14:55.692Z,3.90
2022-08-19T22:19:58.634Z,3.80
2022-08-19T22:25:31.611Z,4.00
2022-08-19T22:30:38.235Z,4.20
2022-08-19T22:35:42.527Z,3.70
2022-08-19T22:40:48.538Z,3.80
2022-08-19T22:45:53.716Z,3.60
2022-08-19T22:51:15.882Z,4.10
2022-08-19T22:56:20.250Z,4.20
2022-08-19T23:01:29.661Z,3.70
2022-08-19T23:06:36.374Z,4.00
2022-08-19T23:11:42.018Z,4.30
2022-08-19T23:16:50.761Z,4.40
2022-08-19T23:21:54.144Z,4.70
2022-08-19T23:27:15.205Z,4.60
2022-08-19T23:32:19.559Z,4.70
2022-08-19T23:37:22.274Z,4.80
2022-08-19T23:42:27.452Z,4.90
2022-08-19T23:47:30.205Z,5.50
2022-08-19T23:52:35.594Z,5.80
2022-08-19T23:57:38.485Z,3.90
